sensor_id;sensor_type;location;lat;lon;timestamp;P1;durP1;ratioP1;P2;durP2;ratioP2
59922;SDS011;45778;51.142;3.732;2024-02-26T00:00:43;1.67;;;0.68;;
59922;SDS011;45778;51.142;3.732;2024-02-26T00:03:08;3.63;;;1.40;;
59922;SDS011;45778;51.142;3.732;2024-02-26T00:05:35;3.42;;;0.90;;
59922;SDS011;45778;51.142;3.732;2024-02-26T00:08:03;3.28;;;1.13;;
59922;SDS011;45778;51.142;3.732;2024-02-26T00:10:29;2.55;;;0.80;;
59922;SDS011;45778;51.142;3.732;2024-02-26T00:12:54;1.88;;;0.85;;
59922;SDS011;45778;51.142;3.732;2024-02-26T00:15:20;3.10;;;1.20;;
59922;SDS011;45778;51.142;3.732;2024-02-26T00:17:45;2.28;;;1.13;;
59922;SDS011;45778;51.142;3.732;2024-02-26T00:20:11;4.07;;;1.13;;
59922;SDS011;45778;51.142;3.732;2024-02-26T00:22:37;3.80;;;1.30;;
59922;SDS011;45778;51.142;3.732;2024-02-26T00:25:03;3.75;;;1.05;;
59922;SDS011;45778;51.142;3.732;2024-02-26T00:27:29;3.97;;;1.20;;
59922;SDS011;45778;51.142;3.732;2024-02-26T00:29:55;2.40;;;1.55;;
59922;SDS011;45778;51.142;3.732;2024-02-26T00:32:20;3.05;;;1.20;;
59922;SDS011;45778;51.142;3.732;2024-02-26T00:34:46;4.13;;;1.17;;
59922;SDS011;45778;51.142;3.732;2024-02-26T00:37:12;2.45;;;0.93;;
59922;SDS011;45778;51.142;3.732;2024-02-26T00:39:39;2.72;;;0.98;;
59922;SDS011;45778;51.142;3.732;2024-02-26T00:42:04;4.43;;;1.45;;
59922;SDS011;45778;51.142;3.732;2024-02-26T00:44:30;1.42;;;0.93;;
59922;SDS011;45778;51.142;3.732;2024-02-26T00:46:55;1.92;;;1.17;;
59922;SDS011;45778;51.142;3.732;2024-02-26T00:49:21;4.13;;;1.20;;
59922;SDS011;45778;51.142;3.732;2024-02-26T00:51:47;1.95;;;1.20;;
59922;SDS011;45778;51.142;3.732;2024-02-26T00:54:12;4.88;;;1.30;;
59922;SDS011;45778;51.142;3.732;2024-02-26T00:56:38;2.58;;;1.38;;
59922;SDS011;45778;51.142;3.732;2024-02-26T00:59:04;2.50;;;0.90;;
59922;SDS011;45778;51.142;3.732;2024-02-26T01:01:29;2.95;;;0.85;;
59922;SDS011;45778;51.142;3.732;2024-02-26T01:03:55;1.08;;;0.85;;
59922;SDS011;45778;51.142;3.732;2024-02-26T01:06:22;4.03;;;1.17;;
59922;SDS011;45778;51.142;3.732;2024-02-26T01:08:47;3.33;;;1.42;;
59922;SDS011;45778;51.142;3.732;2024-02-26T01:11:13;1.67;;;1.10;;
59922;SDS011;45778;51.142;3.732;2024-02-26T01:13:39;1.52;;;1.15;;
59922;SDS011;45778;51.142;3.732;2024-02-26T01:16:05;2.55;;;1.00;;
59922;SDS011;45778;51.142;3.732;2024-02-26T01:18:31;1.80;;;1.00;;
59922;SDS011;45778;51.142;3.732;2024-02-26T01:20:57;2.35;;;1.05;;
59922;SDS011;45778;51.142;3.732;2024-02-26T01:23:23;1.77;;;1.27;;
59922;SDS011;45778;51.142;3.732;2024-02-26T01:25:48;2.30;;;1.10;;
59922;SDS011;45778;51.142;3.732;2024-02-26T01:28:14;2.90;;;1.10;;
59922;SDS011;45778;51.142;3.732;2024-02-26T01:30:41;2.33;;;0.90;;
59922;SDS011;45778;51.142;3.732;2024-02-26T01:33:07;2.25;;;0.95;;
59922;SDS011;45778;51.142;3.732;2024-02-26T01:35:33;1.70;;;1.05;;
59922;SDS011;45778;51.142;3.732;2024-02-26T01:37:58;1.95;;;0.95;;
59922;SDS011;45778;51.142;3.732;2024-02-26T01:40:26;2.65;;;0.90;;
59922;SDS011;45778;51.142;3.732;2024-02-26T01:42:52;2.35;;;1.00;;
59922;SDS011;45778;51.142;3.732;2024-02-26T01:45:18;2.30;;;1.20;;
59922;SDS011;45778;51.142;3.732;2024-02-26T01:47:50;4.07;;;1.20;;
59922;SDS011;45778;51.142;3.732;2024-02-26T01:50:16;3.30;;;1.50;;
59922;SDS011;45778;51.142;3.732;2024-02-26T01:52:47;3.58;;;1.52;;
59922;SDS011;45778;51.142;3.732;2024-02-26T01:55:14;2.05;;;1.20;;
59922;SDS011;45778;51.142;3.732;2024-02-26T01:57:42;3.40;;;1.83;;
59922;SDS011;45778;51.142;3.732;2024-02-26T02:00:10;3.75;;;2.20;;
59922;SDS011;45778;51.142;3.732;2024-02-26T02:02:36;4.45;;;2.17;;
59922;SDS011;45778;51.142;3.732;2024-02-26T02:05:03;6.20;;;2.42;;
59922;SDS011;45778;51.142;3.732;2024-02-26T02:07:30;3.50;;;1.80;;
59922;SDS011;45778;51.142;3.732;2024-02-26T02:09:56;5.20;;;1.60;;
59922;SDS011;45778;51.142;3.732;2024-02-26T02:12:23;5.00;;;2.13;;
59922;SDS011;45778;51.142;3.732;2024-02-26T02:14:49;3.78;;;1.90;;
59922;SDS011;45778;51.142;3.732;2024-02-26T02:17:16;4.03;;;1.73;;
59922;SDS011;45778;51.142;3.732;2024-02-26T02:19:42;2.67;;;1.27;;
59922;SDS011;45778;51.142;3.732;2024-02-26T02:22:07;2.35;;;1.60;;
59922;SDS011;45778;51.142;3.732;2024-02-26T02:24:33;5.88;;;1.80;;
59922;SDS011;45778;51.142;3.732;2024-02-26T02:26:59;3.28;;;1.50;;
59922;SDS011;45778;51.142;3.732;2024-02-26T02:29:24;4.18;;;2.80;;
59922;SDS011;45778;51.142;3.732;2024-02-26T02:31:52;6.05;;;3.28;;
59922;SDS011;45778;51.142;3.732;2024-02-26T02:34:19;8.73;;;4.97;;
59922;SDS011;45778;51.142;3.732;2024-02-26T02:36:51;9.10;;;4.55;;
59922;SDS011;45778;51.142;3.732;2024-02-26T02:39:17;9.63;;;4.70;;
59922;SDS011;45778;51.142;3.732;2024-02-26T02:41:43;7.75;;;5.43;;
59922;SDS011;45778;51.142;3.732;2024-02-26T02:44:09;11.25;;;5.95;;
59922;SDS011;45778;51.142;3.732;2024-02-26T02:46:34;10.27;;;6.68;;
59922;SDS011;45778;51.142;3.732;2024-02-26T02:49:00;11.43;;;6.78;;
59922;SDS011;45778;51.142;3.732;2024-02-26T02:51:26;10.45;;;6.82;;
59922;SDS011;45778;51.142;3.732;2024-02-26T02:53:52;15.13;;;8.30;;
59922;SDS011;45778;51.142;3.732;2024-02-26T02:56:18;14.32;;;7.80;;
59922;SDS011;45778;51.142;3.732;2024-02-26T02:58:44;13.68;;;8.52;;
59922;SDS011;45778;51.142;3.732;2024-02-26T03:01:10;15.48;;;9.32;;
59922;SDS011;45778;51.142;3.732;2024-02-26T03:03:35;16.50;;;10.23;;
59922;SDS011;45778;51.142;3.732;2024-02-26T03:06:02;9.73;;;6.43;;
59922;SDS011;45778;51.142;3.732;2024-02-26T03:08:28;17.30;;;8.35;;
59922;SDS011;45778;51.142;3.732;2024-02-26T03:10:54;16.02;;;9.10;;
59922;SDS011;45778;51.142;3.732;2024-02-26T03:13:20;18.08;;;8.40;;
59922;SDS011;45778;51.142;3.732;2024-02-26T03:15:45;18.85;;;8.65;;
59922;SDS011;45778;51.142;3.732;2024-02-26T03:18:11;12.75;;;7.32;;
59922;SDS011;45778;51.142;3.732;2024-02-26T03:20:37;16.35;;;8.68;;
59922;SDS011;45778;51.142;3.732;2024-02-26T03:23:03;17.02;;;11.07;;
59922;SDS011;45778;51.142;3.732;2024-02-26T03:25:28;20.48;;;10.57;;
59922;SDS011;45778;51.142;3.732;2024-02-26T03:27:54;19.17;;;10.95;;
59922;SDS011;45778;51.142;3.732;2024-02-26T03:30:20;19.20;;;12.48;;
59922;SDS011;45778;51.142;3.732;2024-02-26T03:32:45;18.73;;;12.52;;
59922;SDS011;45778;51.142;3.732;2024-02-26T03:35:12;20.02;;;11.30;;
59922;SDS011;45778;51.142;3.732;2024-02-26T03:37:38;18.63;;;11.98;;
59922;SDS011;45778;51.142;3.732;2024-02-26T03:40:04;19.98;;;12.63;;
59922;SDS011;45778;51.142;3.732;2024-02-26T03:42:31;17.80;;;9.93;;
59922;SDS011;45778;51.142;3.732;2024-02-26T03:44:56;17.33;;;10.60;;
59922;SDS011;45778;51.142;3.732;2024-02-26T03:47:22;13.02;;;9.32;;
59922;SDS011;45778;51.142;3.732;2024-02-26T03:49:49;13.20;;;7.88;;
59922;SDS011;45778;51.142;3.732;2024-02-26T03:52:14;13.73;;;9.45;;
59922;SDS011;45778;51.142;3.732;2024-02-26T03:54:40;13.68;;;7.35;;
59922;SDS011;45778;51.142;3.732;2024-02-26T03:57:05;14.15;;;8.25;;
59922;SDS011;45778;51.142;3.732;2024-02-26T03:59:31;13.30;;;7.63;;
59922;SDS011;45778;51.142;3.732;2024-02-26T04:01:57;12.93;;;7.28;;
59922;SDS011;45778;51.142;3.732;2024-02-26T04:04:22;8.35;;;5.72;;
59922;SDS011;45778;51.142;3.732;2024-02-26T04:06:48;9.25;;;5.40;;
59922;SDS011;45778;51.142;3.732;2024-02-26T04:09:14;9.93;;;5.40;;
59922;SDS011;45778;51.142;3.732;2024-02-26T04:11:40;6.93;;;5.32;;
59922;SDS011;45778;51.142;3.732;2024-02-26T04:14:05;5.47;;;4.80;;
59922;SDS011;45778;51.142;3.732;2024-02-26T04:16:33;7.55;;;4.90;;
59922;SDS011;45778;51.142;3.732;2024-02-26T04:19:00;6.13;;;4.63;;
59922;SDS011;45778;51.142;3.732;2024-02-26T04:21:26;8.18;;;5.15;;
59922;SDS011;45778;51.142;3.732;2024-02-26T04:23:52;6.07;;;4.20;;
59922;SDS011;45778;51.142;3.732;2024-02-26T04:26:20;6.30;;;4.28;;
59922;SDS011;45778;51.142;3.732;2024-02-26T04:28:46;6.55;;;4.35;;
59922;SDS011;45778;51.142;3.732;2024-02-26T04:31:12;7.03;;;4.32;;
59922;SDS011;45778;51.142;3.732;2024-02-26T04:33:37;6.45;;;4.25;;
59922;SDS011;45778;51.142;3.732;2024-02-26T04:36:03;5.55;;;4.35;;
59922;SDS011;45778;51.142;3.732;2024-02-26T04:38:29;6.75;;;5.03;;
59922;SDS011;45778;51.142;3.732;2024-02-26T04:40:55;6.28;;;4.20;;
59922;SDS011;45778;51.142;3.732;2024-02-26T04:43:21;5.57;;;4.22;;
59922;SDS011;45778;51.142;3.732;2024-02-26T04:45:46;6.35;;;4.38;;
59922;SDS011;45778;51.142;3.732;2024-02-26T04:48:13;5.32;;;3.60;;
59922;SDS011;45778;51.142;3.732;2024-02-26T04:50:38;7.72;;;3.63;;
59922;SDS011;45778;51.142;3.732;2024-02-26T04:53:04;8.75;;;4.18;;
59922;SDS011;45778;51.142;3.732;2024-02-26T04:55:30;7.47;;;4.18;;
59922;SDS011;45778;51.142;3.732;2024-02-26T04:57:56;5.47;;;3.70;;
59922;SDS011;45778;51.142;3.732;2024-02-26T05:00:23;4.90;;;3.70;;
59922;SDS011;45778;51.142;3.732;2024-02-26T05:02:48;6.28;;;3.40;;
59922;SDS011;45778;51.142;3.732;2024-02-26T05:05:15;7.20;;;3.65;;
59922;SDS011;45778;51.142;3.732;2024-02-26T05:07:41;3.65;;;3.00;;
59922;SDS011;45778;51.142;3.732;2024-02-26T05:10:08;8.63;;;3.08;;
59922;SDS011;45778;51.142;3.732;2024-02-26T05:12:35;5.82;;;2.90;;
59922;SDS011;45778;51.142;3.732;2024-02-26T05:15:01;4.80;;;3.22;;
59922;SDS011;45778;51.142;3.732;2024-02-26T05:17:28;5.32;;;3.70;;
59922;SDS011;45778;51.142;3.732;2024-02-26T05:19:53;4.97;;;3.22;;
59922;SDS011;45778;51.142;3.732;2024-02-26T05:22:19;4.63;;;3.03;;
59922;SDS011;45778;51.142;3.732;2024-02-26T05:24:45;4.60;;;3.08;;
59922;SDS011;45778;51.142;3.732;2024-02-26T05:27:10;4.82;;;2.88;;
59922;SDS011;45778;51.142;3.732;2024-02-26T05:29:37;5.50;;;3.35;;
59922;SDS011;45778;51.142;3.732;2024-02-26T05:32:03;6.68;;;3.30;;
59922;SDS011;45778;51.142;3.732;2024-02-26T05:34:30;5.72;;;3.20;;
59922;SDS011;45778;51.142;3.732;2024-02-26T05:36:56;4.53;;;3.22;;
59922;SDS011;45778;51.142;3.732;2024-02-26T05:39:22;4.40;;;3.40;;
59922;SDS011;45778;51.142;3.732;2024-02-26T05:41:47;4.70;;;3.22;;
59922;SDS011;45778;51.142;3.732;2024-02-26T05:44:14;8.50;;;3.78;;
59922;SDS011;45778;51.142;3.732;2024-02-26T05:46:41;6.15;;;3.63;;
59922;SDS011;45778;51.142;3.732;2024-02-26T05:49:07;6.15;;;3.65;;
59922;SDS011;45778;51.142;3.732;2024-02-26T05:51:32;5.60;;;3.95;;
59922;SDS011;45778;51.142;3.732;2024-02-26T05:53:58;7.38;;;3.95;;
59922;SDS011;45778;51.142;3.732;2024-02-26T05:56:27;6.28;;;4.03;;
59922;SDS011;45778;51.142;3.732;2024-02-26T05:58:54;7.70;;;4.35;;
59922;SDS011;45778;51.142;3.732;2024-02-26T06:01:24;8.75;;;4.25;;
59922;SDS011;45778;51.142;3.732;2024-02-26T06:03:50;4.80;;;3.58;;
59922;SDS011;45778;51.142;3.732;2024-02-26T06:06:16;5.22;;;3.72;;
59922;SDS011;45778;51.142;3.732;2024-02-26T06:08:42;5.88;;;3.90;;
59922;SDS011;45778;51.142;3.732;2024-02-26T06:11:08;6.32;;;4.32;;
59922;SDS011;45778;51.142;3.732;2024-02-26T06:13:34;5.85;;;4.05;;
59922;SDS011;45778;51.142;3.732;2024-02-26T06:16:00;9.70;;;5.40;;
59922;SDS011;45778;51.142;3.732;2024-02-26T06:18:27;10.20;;;6.10;;
59922;SDS011;45778;51.142;3.732;2024-02-26T06:20:53;8.60;;;4.70;;
59922;SDS011;45778;51.142;3.732;2024-02-26T06:23:19;7.65;;;4.45;;
59922;SDS011;45778;51.142;3.732;2024-02-26T06:25:44;6.57;;;4.65;;
59922;SDS011;45778;51.142;3.732;2024-02-26T06:28:11;7.20;;;4.82;;
59922;SDS011;45778;51.142;3.732;2024-02-26T06:30:37;6.57;;;4.28;;
59922;SDS011;45778;51.142;3.732;2024-02-26T06:33:02;9.13;;;4.82;;
59922;SDS011;45778;51.142;3.732;2024-02-26T06:35:28;10.52;;;5.47;;
59922;SDS011;45778;51.142;3.732;2024-02-26T06:37:55;11.25;;;5.47;;
59922;SDS011;45778;51.142;3.732;2024-02-26T06:40:21;9.27;;;5.63;;
59922;SDS011;45778;51.142;3.732;2024-02-26T06:42:48;8.02;;;5.05;;
59922;SDS011;45778;51.142;3.732;2024-02-26T06:45:15;6.18;;;3.97;;
59922;SDS011;45778;51.142;3.732;2024-02-26T06:47:40;11.50;;;6.03;;
59922;SDS011;45778;51.142;3.732;2024-02-26T06:50:07;10.35;;;4.40;;
59922;SDS011;45778;51.142;3.732;2024-02-26T06:52:34;9.15;;;5.38;;
59922;SDS011;45778;51.142;3.732;2024-02-26T06:54:59;8.38;;;5.10;;
59922;SDS011;45778;51.142;3.732;2024-02-26T06:57:26;8.48;;;5.45;;
59922;SDS011;45778;51.142;3.732;2024-02-26T06:59:52;9.35;;;5.90;;
59922;SDS011;45778;51.142;3.732;2024-02-26T07:02:18;9.60;;;5.03;;
59922;SDS011;45778;51.142;3.732;2024-02-26T07:04:43;8.00;;;4.68;;
59922;SDS011;45778;51.142;3.732;2024-02-26T07:07:09;9.60;;;4.75;;
59922;SDS011;45778;51.142;3.732;2024-02-26T07:09:35;11.05;;;6.13;;
59922;SDS011;45778;51.142;3.732;2024-02-26T07:12:01;8.38;;;5.22;;
59922;SDS011;45778;51.142;3.732;2024-02-26T07:14:27;13.82;;;5.93;;
59922;SDS011;45778;51.142;3.732;2024-02-26T07:16:53;7.60;;;4.75;;
59922;SDS011;45778;51.142;3.732;2024-02-26T07:19:19;6.93;;;4.07;;
59922;SDS011;45778;51.142;3.732;2024-02-26T07:21:44;6.65;;;4.70;;
59922;SDS011;45778;51.142;3.732;2024-02-26T07:24:10;8.60;;;5.25;;
59922;SDS011;45778;51.142;3.732;2024-02-26T07:26:35;6.88;;;3.75;;
59922;SDS011;45778;51.142;3.732;2024-02-26T07:29:01;8.38;;;5.30;;
59922;SDS011;45778;51.142;3.732;2024-02-26T07:31:27;8.63;;;5.07;;
59922;SDS011;45778;51.142;3.732;2024-02-26T07:33:53;8.75;;;3.67;;
59922;SDS011;45778;51.142;3.732;2024-02-26T07:36:18;6.90;;;4.38;;
59922;SDS011;45778;51.142;3.732;2024-02-26T07:38:44;8.88;;;3.65;;
59922;SDS011;45778;51.142;3.732;2024-02-26T07:41:10;8.75;;;4.50;;
59922;SDS011;45778;51.142;3.732;2024-02-26T07:43:36;10.23;;;4.60;;
59922;SDS011;45778;51.142;3.732;2024-02-26T07:46:02;9.93;;;5.00;;
59922;SDS011;45778;51.142;3.732;2024-02-26T07:48:27;6.63;;;4.30;;
59922;SDS011;45778;51.142;3.732;2024-02-26T07:50:53;5.07;;;3.47;;
59922;SDS011;45778;51.142;3.732;2024-02-26T07:53:19;6.10;;;3.72;;
59922;SDS011;45778;51.142;3.732;2024-02-26T07:55:44;7.38;;;3.90;;
59922;SDS011;45778;51.142;3.732;2024-02-26T07:58:10;6.38;;;3.55;;
59922;SDS011;45778;51.142;3.732;2024-02-26T08:00:36;6.20;;;3.10;;
59922;SDS011;45778;51.142;3.732;2024-02-26T08:03:01;5.07;;;3.20;;
59922;SDS011;45778;51.142;3.732;2024-02-26T08:05:27;5.72;;;3.33;;
59922;SDS011;45778;51.142;3.732;2024-02-26T08:07:53;6.45;;;3.22;;
59922;SDS011;45778;51.142;3.732;2024-02-26T08:10:19;7.03;;;3.97;;
59922;SDS011;45778;51.142;3.732;2024-02-26T08:12:45;4.53;;;3.03;;
59922;SDS011;45778;51.142;3.732;2024-02-26T08:15:11;6.13;;;3.85;;
59922;SDS011;45778;51.142;3.732;2024-02-26T08:17:37;6.70;;;3.88;;
59922;SDS011;45778;51.142;3.732;2024-02-26T08:20:03;6.88;;;3.65;;
59922;SDS011;45778;51.142;3.732;2024-02-26T08:22:29;5.82;;;3.40;;
59922;SDS011;45778;51.142;3.732;2024-02-26T08:24:55;5.20;;;3.17;;
59922;SDS011;45778;51.142;3.732;2024-02-26T08:27:20;6.00;;;3.17;;
59922;SDS011;45778;51.142;3.732;2024-02-26T08:29:46;4.65;;;2.97;;
59922;SDS011;45778;51.142;3.732;2024-02-26T08:32:11;5.28;;;3.53;;
59922;SDS011;45778;51.142;3.732;2024-02-26T08:34:37;3.78;;;2.70;;
59922;SDS011;45778;51.142;3.732;2024-02-26T08:37:03;4.63;;;2.58;;
59922;SDS011;45778;51.142;3.732;2024-02-26T08:39:28;4.25;;;2.55;;
59922;SDS011;45778;51.142;3.732;2024-02-26T08:41:54;5.57;;;3.10;;
59922;SDS011;45778;51.142;3.732;2024-02-26T08:44:20;5.07;;;3.33;;
59922;SDS011;45778;51.142;3.732;2024-02-26T08:46:45;6.25;;;3.58;;
59922;SDS011;45778;51.142;3.732;2024-02-26T08:49:11;4.10;;;3.00;;
59922;SDS011;45778;51.142;3.732;2024-02-26T08:51:43;3.78;;;3.17;;
59922;SDS011;45778;51.142;3.732;2024-02-26T08:54:09;5.25;;;3.30;;
59922;SDS011;45778;51.142;3.732;2024-02-26T08:56:35;4.82;;;2.60;;
59922;SDS011;45778;51.142;3.732;2024-02-26T08:59:01;7.00;;;3.00;;
59922;SDS011;45778;51.142;3.732;2024-02-26T09:01:29;4.22;;;2.58;;
59922;SDS011;45778;51.142;3.732;2024-02-26T09:03:56;7.78;;;3.58;;
59922;SDS011;45778;51.142;3.732;2024-02-26T09:06:23;5.57;;;3.83;;
59922;SDS011;45778;51.142;3.732;2024-02-26T09:08:48;6.85;;;3.50;;
59922;SDS011;45778;51.142;3.732;2024-02-26T09:11:14;5.65;;;3.80;;
59922;SDS011;45778;51.142;3.732;2024-02-26T09:13:40;11.63;;;4.50;;
59922;SDS011;45778;51.142;3.732;2024-02-26T09:16:07;7.80;;;3.90;;
59922;SDS011;45778;51.142;3.732;2024-02-26T09:18:32;5.97;;;4.07;;
59922;SDS011;45778;51.142;3.732;2024-02-26T09:20:58;6.75;;;4.18;;
59922;SDS011;45778;51.142;3.732;2024-02-26T09:23:24;7.72;;;4.70;;
59922;SDS011;45778;51.142;3.732;2024-02-26T09:25:50;7.88;;;4.50;;
59922;SDS011;45778;51.142;3.732;2024-02-26T09:28:15;10.88;;;5.07;;
59922;SDS011;45778;51.142;3.732;2024-02-26T09:30:42;9.80;;;4.70;;
59922;SDS011;45778;51.142;3.732;2024-02-26T09:33:09;10.75;;;5.40;;
59922;SDS011;45778;51.142;3.732;2024-02-26T09:35:36;8.43;;;4.72;;
59922;SDS011;45778;51.142;3.732;2024-02-26T09:38:02;8.43;;;4.80;;
59922;SDS011;45778;51.142;3.732;2024-02-26T09:40:28;9.85;;;5.35;;
59922;SDS011;45778;51.142;3.732;2024-02-26T09:43:00;9.45;;;5.65;;
59922;SDS011;45778;51.142;3.732;2024-02-26T09:45:29;9.40;;;5.68;;
59922;SDS011;45778;51.142;3.732;2024-02-26T09:47:57;43.17;;;19.35;;
59922;SDS011;45778;51.142;3.732;2024-02-26T09:50:23;11.85;;;7.28;;
59922;SDS011;45778;51.142;3.732;2024-02-26T09:52:49;12.35;;;6.53;;
59922;SDS011;45778;51.142;3.732;2024-02-26T09:55:16;10.10;;;5.75;;
59922;SDS011;45778;51.142;3.732;2024-02-26T09:57:45;11.65;;;6.88;;
59922;SDS011;45778;51.142;3.732;2024-02-26T10:00:17;9.35;;;6.22;;
59922;SDS011;45778;51.142;3.732;2024-02-26T10:02:45;12.55;;;6.55;;
59922;SDS011;45778;51.142;3.732;2024-02-26T10:05:17;13.77;;;6.50;;
59922;SDS011;45778;51.142;3.732;2024-02-26T10:07:44;11.40;;;6.57;;
59922;SDS011;45778;51.142;3.732;2024-02-26T10:10:11;15.00;;;8.45;;
59922;SDS011;45778;51.142;3.732;2024-02-26T10:12:37;12.07;;;7.75;;
59922;SDS011;45778;51.142;3.732;2024-02-26T10:15:03;12.95;;;6.47;;
59922;SDS011;45778;51.142;3.732;2024-02-26T10:17:28;14.98;;;7.45;;
59922;SDS011;45778;51.142;3.732;2024-02-26T10:19:54;11.30;;;6.68;;
59922;SDS011;45778;51.142;3.732;2024-02-26T10:22:35;15.85;;;7.68;;
59922;SDS011;45778;51.142;3.732;2024-02-26T10:25:00;13.60;;;7.47;;
59922;SDS011;45778;51.142;3.732;2024-02-26T10:27:27;14.00;;;7.53;;
59922;SDS011;45778;51.142;3.732;2024-02-26T10:29:53;15.63;;;7.90;;
59922;SDS011;45778;51.142;3.732;2024-02-26T10:32:22;16.80;;;8.43;;
59922;SDS011;45778;51.142;3.732;2024-02-26T10:34:47;14.85;;;8.07;;
59922;SDS011;45778;51.142;3.732;2024-02-26T10:37:13;19.50;;;10.20;;
59922;SDS011;45778;51.142;3.732;2024-02-26T10:39:46;16.48;;;8.32;;
59922;SDS011;45778;51.142;3.732;2024-02-26T10:42:12;17.10;;;9.50;;
59922;SDS011;45778;51.142;3.732;2024-02-26T10:44:39;17.90;;;8.77;;
59922;SDS011;45778;51.142;3.732;2024-02-26T10:47:05;15.63;;;9.38;;
59922;SDS011;45778;51.142;3.732;2024-02-26T10:49:33;16.65;;;8.77;;
59922;SDS011;45778;51.142;3.732;2024-02-26T10:52:00;19.08;;;9.20;;
59922;SDS011;45778;51.142;3.732;2024-02-26T10:54:29;17.40;;;9.98;;
59922;SDS011;45778;51.142;3.732;2024-02-26T10:56:57;17.38;;;9.77;;
59922;SDS011;45778;51.142;3.732;2024-02-26T10:59:25;18.65;;;10.82;;
59922;SDS011;45778;51.142;3.732;2024-02-26T11:01:51;19.45;;;10.32;;
59922;SDS011;45778;51.142;3.732;2024-02-26T11:04:17;17.33;;;9.68;;
59922;SDS011;45778;51.142;3.732;2024-02-26T11:06:44;18.08;;;10.27;;
59922;SDS011;45778;51.142;3.732;2024-02-26T11:09:11;17.48;;;10.35;;
59922;SDS011;45778;51.142;3.732;2024-02-26T11:11:39;19.05;;;10.23;;
59922;SDS011;45778;51.142;3.732;2024-02-26T11:14:06;16.98;;;10.43;;
59922;SDS011;45778;51.142;3.732;2024-02-26T11:16:35;17.67;;;9.65;;
59922;SDS011;45778;51.142;3.732;2024-02-26T11:19:01;17.05;;;9.35;;
59922;SDS011;45778;51.142;3.732;2024-02-26T11:21:27;18.73;;;9.13;;
59922;SDS011;45778;51.142;3.732;2024-02-26T11:24:04;17.00;;;10.05;;
59922;SDS011;45778;51.142;3.732;2024-02-26T11:26:38;16.55;;;9.38;;
59922;SDS011;45778;51.142;3.732;2024-02-26T11:29:13;15.40;;;8.57;;
59922;SDS011;45778;51.142;3.732;2024-02-26T11:31:44;15.82;;;8.05;;
59922;SDS011;45778;51.142;3.732;2024-02-26T11:34:10;13.30;;;7.93;;
59922;SDS011;45778;51.142;3.732;2024-02-26T11:36:36;11.77;;;7.55;;
59922;SDS011;45778;51.142;3.732;2024-02-26T11:39:03;19.05;;;10.90;;
59922;SDS011;45778;51.142;3.732;2024-02-26T11:41:29;34.53;;;17.75;;
59922;SDS011;45778;51.142;3.732;2024-02-26T11:44:00;18.52;;;10.50;;
59922;SDS011;45778;51.142;3.732;2024-02-26T11:46:41;13.00;;;7.03;;
59922;SDS011;45778;51.142;3.732;2024-02-26T11:51:56;12.23;;;7.28;;
59922;SDS011;45778;51.142;3.732;2024-02-26T11:59:46;8.82;;;6.20;;
59922;SDS011;45778;51.142;3.732;2024-02-26T12:02:37;9.95;;;6.05;;
59922;SDS011;45778;51.142;3.732;2024-02-26T12:05:17;11.55;;;5.78;;
59922;SDS011;45778;51.142;3.732;2024-02-26T12:07:54;9.80;;;5.65;;
59922;SDS011;45778;51.142;3.732;2024-02-26T12:15:27;14.73;;;6.65;;
59922;SDS011;45778;51.142;3.732;2024-02-26T12:17:56;9.45;;;5.82;;
59922;SDS011;45778;51.142;3.732;2024-02-26T12:20:22;11.30;;;5.85;;
59922;SDS011;45778;51.142;3.732;2024-02-26T12:22:49;10.30;;;5.70;;
59922;SDS011;45778;51.142;3.732;2024-02-26T12:25:17;11.75;;;5.18;;
59922;SDS011;45778;51.142;3.732;2024-02-26T12:27:47;6.82;;;3.88;;
59922;SDS011;45778;51.142;3.732;2024-02-26T12:30:13;9.27;;;5.70;;
59922;SDS011;45778;51.142;3.732;2024-02-26T12:32:39;7.75;;;4.93;;
59922;SDS011;45778;51.142;3.732;2024-02-26T12:35:05;10.73;;;4.55;;
59922;SDS011;45778;51.142;3.732;2024-02-26T12:37:31;6.47;;;3.97;;
59922;SDS011;45778;51.142;3.732;2024-02-26T12:39:57;5.05;;;3.67;;
59922;SDS011;45778;51.142;3.732;2024-02-26T12:42:23;7.20;;;3.80;;
59922;SDS011;45778;51.142;3.732;2024-02-26T12:44:49;7.18;;;4.32;;
59922;SDS011;45778;51.142;3.732;2024-02-26T12:47:15;6.70;;;3.85;;
59922;SDS011;45778;51.142;3.732;2024-02-26T12:49:48;8.02;;;4.75;;
59922;SDS011;45778;51.142;3.732;2024-02-26T12:52:14;8.65;;;4.22;;
59922;SDS011;45778;51.142;3.732;2024-02-26T12:54:41;8.20;;;4.47;;
59922;SDS011;45778;51.142;3.732;2024-02-26T12:57:08;5.70;;;3.95;;
59922;SDS011;45778;51.142;3.732;2024-02-26T12:59:34;9.68;;;4.55;;
59922;SDS011;45778;51.142;3.732;2024-02-26T13:02:01;6.53;;;3.78;;
59922;SDS011;45778;51.142;3.732;2024-02-26T13:04:29;7.20;;;4.13;;
59922;SDS011;45778;51.142;3.732;2024-02-26T13:06:55;7.65;;;3.38;;
59922;SDS011;45778;51.142;3.732;2024-02-26T13:09:31;7.95;;;4.00;;
59922;SDS011;45778;51.142;3.732;2024-02-26T13:11:59;4.50;;;2.78;;
59922;SDS011;45778;51.142;3.732;2024-02-26T13:14:25;8.80;;;3.92;;
59922;SDS011;45778;51.142;3.732;2024-02-26T13:16:55;6.47;;;4.40;;
59922;SDS011;45778;51.142;3.732;2024-02-26T13:19:23;6.10;;;3.90;;
59922;SDS011;45778;51.142;3.732;2024-02-26T13:21:49;8.02;;;4.15;;
59922;SDS011;45778;51.142;3.732;2024-02-26T13:24:15;7.53;;;3.72;;
59922;SDS011;45778;51.142;3.732;2024-02-26T13:26:41;5.82;;;3.95;;
59922;SDS011;45778;51.142;3.732;2024-02-26T13:29:07;6.68;;;3.97;;
59922;SDS011;45778;51.142;3.732;2024-02-26T13:31:39;7.40;;;3.97;;
59922;SDS011;45778;51.142;3.732;2024-02-26T13:34:05;7.60;;;4.27;;
59922;SDS011;45778;51.142;3.732;2024-02-26T13:36:31;6.28;;;4.03;;
59922;SDS011;45778;51.142;3.732;2024-02-26T13:38:56;8.65;;;5.25;;
59922;SDS011;45778;51.142;3.732;2024-02-26T13:41:22;5.95;;;3.70;;
59922;SDS011;45778;51.142;3.732;2024-02-26T13:43:48;7.85;;;4.68;;
59922;SDS011;45778;51.142;3.732;2024-02-26T13:46:14;7.50;;;4.68;;
59922;SDS011;45778;51.142;3.732;2024-02-26T13:48:40;8.38;;;4.30;;
59922;SDS011;45778;51.142;3.732;2024-02-26T13:51:06;5.18;;;3.75;;
59922;SDS011;45778;51.142;3.732;2024-02-26T13:53:32;6.25;;;3.90;;
59922;SDS011;45778;51.142;3.732;2024-02-26T13:55:58;6.57;;;3.92;;
59922;SDS011;45778;51.142;3.732;2024-02-26T13:58:26;6.85;;;4.00;;
59922;SDS011;45778;51.142;3.732;2024-02-26T14:00:55;4.30;;;3.33;;
59922;SDS011;45778;51.142;3.732;2024-02-26T14:03:21;7.38;;;4.13;;
59922;SDS011;45778;51.142;3.732;2024-02-26T14:05:47;5.30;;;3.70;;
59922;SDS011;45778;51.142;3.732;2024-02-26T14:08:13;6.57;;;4.32;;
59922;SDS011;45778;51.142;3.732;2024-02-26T14:10:39;7.45;;;4.32;;
59922;SDS011;45778;51.142;3.732;2024-02-26T14:13:05;6.18;;;3.78;;
59922;SDS011;45778;51.142;3.732;2024-02-26T14:15:31;7.47;;;4.47;;
59922;SDS011;45778;51.142;3.732;2024-02-26T14:17:57;10.13;;;5.05;;
59922;SDS011;45778;51.142;3.732;2024-02-26T14:20:23;7.78;;;4.32;;
59922;SDS011;45778;51.142;3.732;2024-02-26T14:22:50;7.80;;;5.00;;
59922;SDS011;45778;51.142;3.732;2024-02-26T14:25:18;8.38;;;4.95;;
59922;SDS011;45778;51.142;3.732;2024-02-26T14:27:45;11.10;;;5.43;;
59922;SDS011;45778;51.142;3.732;2024-02-26T14:30:11;9.05;;;5.60;;
59922;SDS011;45778;51.142;3.732;2024-02-26T14:32:38;9.63;;;5.28;;
59922;SDS011;45778;51.142;3.732;2024-02-26T14:35:05;8.18;;;4.53;;
59922;SDS011;45778;51.142;3.732;2024-02-26T14:37:32;8.40;;;5.70;;
59922;SDS011;45778;51.142;3.732;2024-02-26T14:39:59;9.48;;;5.18;;
59922;SDS011;45778;51.142;3.732;2024-02-26T14:42:24;7.82;;;5.03;;
59922;SDS011;45778;51.142;3.732;2024-02-26T14:44:50;8.48;;;4.97;;
59922;SDS011;45778;51.142;3.732;2024-02-26T14:47:16;8.40;;;5.35;;
59922;SDS011;45778;51.142;3.732;2024-02-26T14:49:42;8.90;;;5.10;;
59922;SDS011;45778;51.142;3.732;2024-02-26T14:52:08;7.40;;;4.28;;